Flight Track Log - Related Links

Times and Time Zones

All times are in EDT time to prevent confusion due to time zone crossing. See the DAL268 flight status page for this flight to view local times or setup timezone preferences in your user account.


Time Position Orientation Groundspeed Altitude Reporting Facility
EDT Latitude Longitude Course Direction KTS MPH feet Rate Location/Type
Thu 06:43:37 PM 33.6333 -84.3667 101° East 179 206 2,500  Level Atlanta TRACON
Thu 06:44:37 PM 33.6333 -84.3000 90° East 238 274 4,900 2,450 Climbing Atlanta TRACON
Thu 06:45:00 PM 33.8611 -84.1340 101° East  Level Estimated
Thu 06:45:37 PM 33.6333 -84.2167 90° East 260 299 7,400  Level Atlanta TRACON
Thu 06:46:00 PM 33.8055 -84.0190 120° Southeast  Level FlightAware Approximate
Thu 06:47:00 PM 33.7498 -83.9041 120° Southeast  Level FlightAware Approximate
Thu 06:47:37 PM 33.6378 -84.0314 88° East 278 320 11,900  Level Atlanta Center
Thu 06:48:00 PM 33.8258 -83.8075 101° East  Level Estimated
Thu 06:48:37 PM 33.6439 -83.9339 86° East 288 331 14,200  Level Atlanta Center
Thu 06:49:37 PM 33.6522 -83.8267 85° East 308 354 15,500 1,050 Climbing Atlanta Center
Thu 06:50:37 PM 33.6561 -83.7194 87° East 335 386 16,300 1,200 Climbing Atlanta Center
Thu 06:51:37 PM 33.6808 -83.5894 77° East 374 430 17,900 1,500 Climbing Atlanta Center
Thu 06:52:37 PM 33.7344 -83.4642 63° Northeast 406 467 19,300 1,250 Climbing Atlanta Center
Thu 06:53:37 PM 33.7881 -83.3264 65° Northeast 423 487 20,400 1,200 Climbing Atlanta Center
Thu 06:54:37 PM 33.8414 -83.1908 65° Northeast 438 504 21,700 1,200 Climbing Atlanta Center
Thu 06:55:37 PM 33.8989 -83.0528 63° Northeast 450 518 22,800 1,150 Climbing Atlanta Center
Thu 06:56:37 PM 33.9539 -82.9069 66° East 464 534 24,000 1,750 Climbing Atlanta Center
Thu 06:57:37 PM 34.0111 -82.7683 63° Northeast 464 534 26,300 1,500 Climbing Atlanta Center
Thu 06:58:37 PM 34.0719 -82.6144 64° Northeast 456 525 27,000 850 Climbing Atlanta Center
Thu 06:59:37 PM 34.1306 -82.4703 64° Northeast 469 540 28,000 1,050 Climbing Atlanta Center
Thu 07:00:37 PM 34.1872 -82.3211 65° Northeast 469 540 29,100 1,050 Climbing Atlanta Center
Thu 07:01:37 PM 34.2456 -82.1767 64° Northeast 469 540 30,100 1,000 Climbing Atlanta Center
Thu 07:02:37 PM 34.3100 -82.0344 61° Northeast 469 540 31,100 950 Climbing Atlanta Center
Thu 07:03:37 PM 34.3808 -81.8944 58° Northeast 475 547 32,000 800 Climbing Atlanta Center
Thu 07:04:37 PM 34.4494 -81.7592 58° Northeast 475 547 32,700 500 Climbing Atlanta Center
Thu 07:05:37 PM 34.5197 -81.6186 59° Northeast 475 547 33,000 150 Climbing Atlanta Center
Thu 07:06:37 PM 34.5897 -81.4778 59° Northeast 475 547 33,000  Level Atlanta Center
Thu 07:07:37 PM 34.6497 -81.3547 59° Northeast 475 547 33,000  Level Atlanta Center
Thu 07:08:37 PM 34.7175 -81.2136 60° Northeast 477 549 33,000  Level Atlanta Center
Thu 07:09:37 PM 34.7853 -81.0772 59° Northeast 472 543 33,000  Level Atlanta Center
Thu 07:11:59 PM 34.9453 -80.7483 59° Northeast 471 542 33,000  Level Washington Center
Thu 07:12:58 PM 35.0136 -80.6106 59° Northeast 479 551 33,000  Level Washington Center
Thu 07:13:58 PM 35.0847 -80.4603 60° Northeast 474 545 33,000  Level Washington Center
Thu 07:14:59 PM 35.1531 -80.3169 60° Northeast 469 540 33,000  Level Washington Center
Thu 07:15:59 PM 35.2189 -80.1811 59° Northeast 474 545 33,000  Level Washington Center
Thu 07:16:59 PM 35.2867 -80.0425 59° Northeast 474 545 33,000  Level Washington Center
Thu 07:18:00 PM 35.3522 -79.9033 60° Northeast 474 545 33,000  Level Washington Center
Thu 07:18:58 PM 35.4156 -79.7642 61° Northeast 468 539 33,000  Level Washington Center
Thu 07:19:58 PM 35.4811 -79.6222 60° Northeast 463 533 33,000  Level Washington Center
Thu 07:20:59 PM 35.5483 -79.4825 59° Northeast 468 539 33,000  Level Washington Center
Thu 07:22:00 PM 35.6133 -79.3400 61° Northeast 468 539 33,000  Level Washington Center
Thu 07:22:58 PM 35.6822 -79.2003 59° Northeast 468 539 33,000  Level Washington Center
Thu 07:23:59 PM 35.7469 -79.0572 61° Northeast 468 539 33,000  Level Washington Center
Thu 07:25:00 PM 35.8136 -78.9142 60° Northeast 468 539 33,000  Level Washington Center
Thu 07:25:58 PM 35.8719 -78.7706 63° Northeast 468 539 33,000  Level Washington Center
Thu 07:26:58 PM 35.8908 -78.6044 82° East 468 539 33,000  Level Washington Center
Thu 07:27:59 PM 35.9069 -78.4592 82° East 463 533 33,000  Level Washington Center
Thu 07:29:00 PM 35.9211 -78.2953 84° East 476 548 33,000  Level Washington Center
Thu 07:29:58 PM 35.9372 -78.1292 83° East 481 554 33,000  Level Washington Center
Thu 07:30:59 PM 35.9511 -77.9653 84° East 481 554 33,000  Level Washington Center
Thu 07:32:00 PM 35.9689 -77.7992 82° East 481 554 33,000  Level Washington Center
Thu 07:33:00 PM 36.0461 -77.6728 53° Northeast 458 527 33,000  Level Washington Center
Thu 07:33:58 PM 36.1481 -77.5650 40° Northeast 461 531 33,000  Level Washington Center
Thu 07:34:59 PM 36.2544 -77.4492 41° Northeast 461 531 33,000  Level Washington Center
Thu 07:35:58 PM 36.3539 -77.3458 40° Northeast 455 524 33,000  Level Washington Center
Thu 07:36:58 PM 36.4536 -77.2369 41° Northeast 455 524 33,000  Level Washington Center
Thu 07:38:00 PM 36.5489 -77.1303 42° Northeast 460 529 33,000  Level Washington Center
Thu 07:39:00 PM 36.6461 -77.0286 40° Northeast 460 529 33,000  Level Washington Center
Thu 07:40:00 PM 36.7433 -76.9189 42° Northeast 465 535 33,000  Level Washington Center
Thu 07:40:58 PM 36.8425 -76.8117 41° Northeast 465 535 33,000  Level Washington Center
Thu 07:41:59 PM 36.9375 -76.7067 41° Northeast 465 535 33,000  Level Washington Center
Thu 07:42:59 PM 37.0344 -76.5989 42° Northeast 465 535 33,000  Level Washington Center
Thu 07:44:00 PM 37.1311 -76.4906 42° Northeast 460 529 33,000  Level Washington Center
Thu 07:45:01 PM 37.2172 -76.3978 41° Northeast 467 537 33,000  Level Washington Center
Thu 07:45:58 PM 37.3119 -76.2917 42° Northeast 462 532 33,000  Level Washington Center
Thu 07:46:58 PM 37.4083 -76.1906 40° Northeast 457 526 33,000  Level Washington Center
Thu 07:47:59 PM 37.5108 -76.1022 34° Northeast 452 520 33,000  Level Washington Center
Thu 07:48:59 PM 37.6156 -76.0139 34° Northeast 452 520 33,000  Level Washington Center
Thu 07:50:00 PM 37.7181 -75.9253 34° Northeast 447 514 33,000  Level Washington Center
Thu 07:50:59 PM 37.8164 -75.8283 38° Northeast 447 514 33,000  Level Washington Center
Thu 07:51:59 PM 37.9311 -75.7367 32° Northeast 442 509 33,000  Level Washington Center
Thu 07:52:59 PM 38.0333 -75.6419 36° Northeast 447 514 33,000  Level Washington Center
Thu 07:54:00 PM 38.1211 -75.5575 37° Northeast 447 514 33,000  Level Washington Center
Thu 07:55:00 PM 38.2336 -75.4647 33° Northeast 441 507 33,000  Level Washington Center
Thu 07:55:58 PM 38.3208 -75.3800 37° Northeast 436 502 33,000  Level Washington Center
Thu 07:56:58 PM 38.4208 -75.2897 35° Northeast 441 507 33,000 -50 Level Washington Center
Thu 07:57:59 PM 38.5206 -75.2017 35° Northeast 441 507 32,900  Descending Washington Center
Thu 07:59:00 PM 38.6203 -75.1108 35° Northeast 441 507 33,000 50 Climbing Washington Center
Thu 08:00:00 PM 38.7264 -75.0408 27° Northeast 436 502 33,000  Level Washington Center
Thu 08:01:00 PM 38.8281 -74.9575 33° Northeast 431 496 33,000 -102 Level Washington Center
Thu 08:01:58 PM 38.9297 -74.8686 34° Northeast 431 496 32,800 -1,160 Descending Washington Center
Thu 08:02:59 PM 39.0272 -74.7819 35° Northeast 431 496 30,700 -2,656 Descending Washington Center
Thu 08:04:00 PM 39.1308 -74.6872 35° Northeast 437 503 27,400 -3,170 Descending Washington Center
Thu 08:04:45 PM 39.2108 -74.6158 35° Northeast 464 534 25,100 -2,604 Descending New York Center
Thu 08:05:46 PM 39.3094 -74.5272 35° Northeast 465 535 22,800 -2,430 Descending New York Center
Thu 08:06:46 PM 39.4019 -74.4408 36° Northeast 437 503 20,200 -2,380 Descending New York Center
Thu 08:07:47 PM 39.5006 -74.3492 36° Northeast 407 468 18,000 -1,100 Descending New York Center
Thu 08:08:46 PM 39.5822 -74.2753 35° Northeast 395 455 18,000 -101 Level New York Center
Thu 08:09:46 PM 39.6661 -74.1850 40° Northeast 387 445 17,800 -1,289 Descending New York Center
Thu 08:10:47 PM 39.7542 -74.0894 40° Northeast 381 438 15,400 -2,471 Descending New York Center
Thu 08:11:45 PM 39.8317 -74.0039 40° Northeast 371 427 12,900 -2,186 Descending New York Center
Thu 08:12:45 PM 39.9064 -73.9450 31° Northeast 358 412 11,100 -942 Descending New York Center
Thu 08:13:46 PM 39.9828 -73.8889 29° Northeast 338 389 11,000 -49 Descending New York Center
Thu 08:14:48 PM 40.0550 -73.8433 26° Northeast 276 318 11,000 -400 Level New York Center
Thu 08:15:46 PM 40.1225 -73.8031 25° Northeast 261 300 10,200 -1,071 Descending New York Center
Thu 08:16:12 PM 40.1500 -73.7833 29° Northeast 263 303 9,500 -1,535 Descending New York TRACON
Thu 08:17:12 PM 40.2167 -73.7500 21° North 254 292 8,000 -1,250 Descending New York TRACON
Thu 08:18:12 PM 40.2833 -73.7000 30° Northeast 254 292 7,000 -500 Descending New York TRACON
Thu 08:19:12 PM 40.3500 -73.6667 21° North 256 295 7,000  Level New York TRACON
Thu 08:20:12 PM 40.4000 -73.6167 37° Northeast 251 289 7,000  Level New York TRACON
Thu 08:21:07 PM 40.4500 -73.5667 37° Northeast 252 290 7,000 -149 Level New York TRACON
Thu 08:22:13 PM 40.5167 -73.5000 37° Northeast 256 295 6,700 -905 Descending New York TRACON
Thu 08:23:13 PM 40.5833 -73.4667 21° North 256 295 5,100 -1,350 Descending New York TRACON
Thu 08:24:13 PM 40.6500 -73.4333 21° North 254 292 4,000 -579 Descending New York TRACON
Thu 08:25:07 PM 40.7000 -73.4500 346° North 220 253 4,000 -579 Level New York TRACON
Thu 08:26:07 PM 40.7500 -73.5167 315° West 222 255 2,900 -1,000 Descending New York TRACON
Thu 08:27:07 PM 40.7667 -73.5833 288° West 224 258 2,000 -450 Descending New York TRACON
Thu 08:28:07 PM 40.7500 -73.6500 252° West 211 243 2,000  Level New York TRACON

Login

Don't have an account? Register now (free) for customized features, flight alerts, and more!